sensor_id;sensor_type;location;lat;lon;timestamp;P1;durP1;ratioP1;P2;durP2;ratioP2
42702;SDS011;28341;52.064;4.920;2023-07-09T00:00:48;11.23;;;8.13;;
42702;SDS011;28341;52.064;4.920;2023-07-09T00:02:53;15.95;;;8.55;;
42702;SDS011;28341;52.064;4.920;2023-07-09T00:04:58;11.65;;;8.50;;
42702;SDS011;28341;52.064;4.920;2023-07-09T00:07:02;11.20;;;8.00;;
42702;SDS011;28341;52.064;4.920;2023-07-09T00:09:11;11.77;;;7.93;;
42702;SDS011;28341;52.064;4.920;2023-07-09T00:11:19;10.45;;;8.13;;
42702;SDS011;28341;52.064;4.920;2023-07-09T00:13:24;10.48;;;7.90;;
42702;SDS011;28341;52.064;4.920;2023-07-09T00:15:30;12.23;;;7.20;;
42702;SDS011;28341;52.064;4.920;2023-07-09T00:17:34;11.77;;;8.30;;
42702;SDS011;28341;52.064;4.920;2023-07-09T00:19:39;10.63;;;8.57;;
42702;SDS011;28341;52.064;4.920;2023-07-09T00:21:45;10.50;;;8.32;;
42702;SDS011;28341;52.064;4.920;2023-07-09T00:23:54;11.18;;;8.20;;
42702;SDS011;28341;52.064;4.920;2023-07-09T00:25:59;12.90;;;9.35;;
42702;SDS011;28341;52.064;4.920;2023-07-09T00:28:07;11.20;;;7.43;;
42702;SDS011;28341;52.064;4.920;2023-07-09T00:30:16;9.95;;;8.30;;
42702;SDS011;28341;52.064;4.920;2023-07-09T00:32:20;8.25;;;6.70;;
42702;SDS011;28341;52.064;4.920;2023-07-09T00:34:25;12.13;;;9.32;;
42702;SDS011;28341;52.064;4.920;2023-07-09T00:36:27;10.60;;;8.70;;
42702;SDS011;28341;52.064;4.920;2023-07-09T00:38:33;13.57;;;8.23;;
42702;SDS011;28341;52.064;4.920;2023-07-09T00:40:43;10.10;;;7.30;;
42702;SDS011;28341;52.064;4.920;2023-07-09T00:42:51;11.35;;;7.95;;
42702;SDS011;28341;52.064;4.920;2023-07-09T00:45:00;11.80;;;7.90;;
42702;SDS011;28341;52.064;4.920;2023-07-09T00:47:16;12.55;;;8.27;;
42702;SDS011;28341;52.064;4.920;2023-07-09T00:49:28;13.85;;;9.30;;
42702;SDS011;28341;52.064;4.920;2023-07-09T00:51:34;10.38;;;9.25;;
42702;SDS011;28341;52.064;4.920;2023-07-09T00:53:42;9.77;;;8.38;;
42702;SDS011;28341;52.064;4.920;2023-07-09T00:55:48;9.73;;;8.05;;
42702;SDS011;28341;52.064;4.920;2023-07-09T00:57:53;11.82;;;8.40;;
42702;SDS011;28341;52.064;4.920;2023-07-09T01:00:04;12.48;;;9.23;;
42702;SDS011;28341;52.064;4.920;2023-07-09T01:02:14;14.32;;;9.82;;
42702;SDS011;28341;52.064;4.920;2023-07-09T01:04:23;12.63;;;9.25;;
42702;SDS011;28341;52.064;4.920;2023-07-09T01:06:28;11.30;;;8.75;;
42702;SDS011;28341;52.064;4.920;2023-07-09T01:08:35;13.43;;;9.88;;
42702;SDS011;28341;52.064;4.920;2023-07-09T01:10:42;11.10;;;9.35;;
42702;SDS011;28341;52.064;4.920;2023-07-09T01:12:44;10.80;;;8.73;;
42702;SDS011;28341;52.064;4.920;2023-07-09T01:14:49;14.77;;;10.20;;
42702;SDS011;28341;52.064;4.920;2023-07-09T01:17:03;11.55;;;8.80;;
42702;SDS011;28341;52.064;4.920;2023-07-09T01:19:09;10.82;;;8.68;;
42702;SDS011;28341;52.064;4.920;2023-07-09T01:21:16;10.05;;;8.48;;
42702;SDS011;28341;52.064;4.920;2023-07-09T01:23:21;10.15;;;8.40;;
42702;SDS011;28341;52.064;4.920;2023-07-09T01:25:25;9.23;;;7.70;;
42702;SDS011;28341;52.064;4.920;2023-07-09T01:27:28;13.95;;;9.13;;
42702;SDS011;28341;52.064;4.920;2023-07-09T01:29:35;11.02;;;8.45;;
42702;SDS011;28341;52.064;4.920;2023-07-09T01:31:38;10.13;;;8.15;;
42702;SDS011;28341;52.064;4.920;2023-07-09T01:33:42;11.73;;;9.45;;
42702;SDS011;28341;52.064;4.920;2023-07-09T01:35:44;13.15;;;9.00;;
42702;SDS011;28341;52.064;4.920;2023-07-09T01:37:51;14.60;;;9.52;;
42702;SDS011;28341;52.064;4.920;2023-07-09T01:39:55;11.10;;;9.18;;
42702;SDS011;28341;52.064;4.920;2023-07-09T01:41:57;12.32;;;9.80;;
42702;SDS011;28341;52.064;4.920;2023-07-09T01:44:01;13.57;;;8.98;;
42702;SDS011;28341;52.064;4.920;2023-07-09T01:46:05;11.70;;;9.23;;
42702;SDS011;28341;52.064;4.920;2023-07-09T01:48:09;11.70;;;8.95;;
42702;SDS011;28341;52.064;4.920;2023-07-09T01:50:16;12.10;;;9.73;;
42702;SDS011;28341;52.064;4.920;2023-07-09T01:52:20;11.85;;;9.30;;
42702;SDS011;28341;52.064;4.920;2023-07-09T01:54:25;10.48;;;8.68;;
42702;SDS011;28341;52.064;4.920;2023-07-09T01:56:29;10.10;;;8.55;;
42702;SDS011;28341;52.064;4.920;2023-07-09T01:58:34;11.77;;;8.88;;
42702;SDS011;28341;52.064;4.920;2023-07-09T02:00:45;12.05;;;10.20;;
42702;SDS011;28341;52.064;4.920;2023-07-09T02:02:49;13.23;;;10.50;;
42702;SDS011;28341;52.064;4.920;2023-07-09T02:04:55;11.73;;;9.50;;
42702;SDS011;28341;52.064;4.920;2023-07-09T02:06:57;14.45;;;9.60;;
42702;SDS011;28341;52.064;4.920;2023-07-09T02:09:01;12.85;;;10.13;;
42702;SDS011;28341;52.064;4.920;2023-07-09T02:11:05;10.93;;;8.63;;
42702;SDS011;28341;52.064;4.920;2023-07-09T02:13:09;13.25;;;9.73;;
42702;SDS011;28341;52.064;4.920;2023-07-09T02:15:14;16.50;;;10.88;;
42702;SDS011;28341;52.064;4.920;2023-07-09T02:17:18;12.45;;;9.43;;
42702;SDS011;28341;52.064;4.920;2023-07-09T02:19:20;13.68;;;9.68;;
42702;SDS011;28341;52.064;4.920;2023-07-09T02:21:24;13.13;;;9.68;;
42702;SDS011;28341;52.064;4.920;2023-07-09T02:23:30;12.70;;;9.65;;
42702;SDS011;28341;52.064;4.920;2023-07-09T02:25:34;12.88;;;10.15;;
42702;SDS011;28341;52.064;4.920;2023-07-09T02:27:41;13.40;;;9.93;;
42702;SDS011;28341;52.064;4.920;2023-07-09T02:29:45;12.90;;;9.63;;
42702;SDS011;28341;52.064;4.920;2023-07-09T02:31:49;13.80;;;10.45;;
42702;SDS011;28341;52.064;4.920;2023-07-09T02:33:54;13.13;;;9.80;;
42702;SDS011;28341;52.064;4.920;2023-07-09T02:35:59;12.02;;;9.80;;
42702;SDS011;28341;52.064;4.920;2023-07-09T02:38:03;14.07;;;9.15;;
42702;SDS011;28341;52.064;4.920;2023-07-09T02:40:08;11.70;;;9.57;;
42702;SDS011;28341;52.064;4.920;2023-07-09T02:42:17;10.98;;;8.30;;
42702;SDS011;28341;52.064;4.920;2023-07-09T02:44:26;13.85;;;10.20;;
42702;SDS011;28341;52.064;4.920;2023-07-09T02:46:30;14.32;;;10.52;;
42702;SDS011;28341;52.064;4.920;2023-07-09T02:48:34;13.15;;;9.60;;
42702;SDS011;28341;52.064;4.920;2023-07-09T02:50:38;13.80;;;10.13;;
42702;SDS011;28341;52.064;4.920;2023-07-09T02:52:42;12.27;;;9.75;;
42702;SDS011;28341;52.064;4.920;2023-07-09T02:54:46;12.32;;;9.93;;
42702;SDS011;28341;52.064;4.920;2023-07-09T02:56:48;13.40;;;10.43;;
42702;SDS011;28341;52.064;4.920;2023-07-09T02:58:52;12.88;;;10.20;;
42702;SDS011;28341;52.064;4.920;2023-07-09T03:00:59;19.52;;;11.13;;
42702;SDS011;28341;52.064;4.920;2023-07-09T03:03:03;18.65;;;14.27;;
42702;SDS011;28341;52.064;4.920;2023-07-09T03:05:08;15.98;;;13.57;;
42702;SDS011;28341;52.064;4.920;2023-07-09T03:07:12;15.40;;;12.18;;
42702;SDS011;28341;52.064;4.920;2023-07-09T03:09:16;16.10;;;12.25;;
42702;SDS011;28341;52.064;4.920;2023-07-09T03:11:21;18.58;;;12.32;;
42702;SDS011;28341;52.064;4.920;2023-07-09T03:13:25;13.50;;;11.23;;
42702;SDS011;28341;52.064;4.920;2023-07-09T03:15:30;15.18;;;12.25;;
42702;SDS011;28341;52.064;4.920;2023-07-09T03:17:43;20.08;;;12.43;;
42702;SDS011;28341;52.064;4.920;2023-07-09T03:19:47;17.35;;;12.90;;
42702;SDS011;28341;52.064;4.920;2023-07-09T03:21:51;16.25;;;13.05;;
42702;SDS011;28341;52.064;4.920;2023-07-09T03:23:56;16.10;;;12.68;;
42702;SDS011;28341;52.064;4.920;2023-07-09T03:25:58;17.95;;;12.85;;
42702;SDS011;28341;52.064;4.920;2023-07-09T03:28:02;14.25;;;12.23;;
42702;SDS011;28341;52.064;4.920;2023-07-09T03:30:07;15.18;;;12.35;;
42702;SDS011;28341;52.064;4.920;2023-07-09T03:32:12;14.25;;;12.27;;
42702;SDS011;28341;52.064;4.920;2023-07-09T03:34:19;16.55;;;13.23;;
42702;SDS011;28341;52.064;4.920;2023-07-09T03:36:23;15.98;;;13.90;;
42702;SDS011;28341;52.064;4.920;2023-07-09T03:38:27;14.80;;;12.77;;
42702;SDS011;28341;52.064;4.920;2023-07-09T03:40:31;14.90;;;13.05;;
42702;SDS011;28341;52.064;4.920;2023-07-09T03:42:37;16.70;;;13.20;;
42702;SDS011;28341;52.064;4.920;2023-07-09T03:44:41;21.42;;;14.38;;
42702;SDS011;28341;52.064;4.920;2023-07-09T03:46:45;16.23;;;12.82;;
42702;SDS011;28341;52.064;4.920;2023-07-09T03:48:49;17.27;;;13.75;;
42702;SDS011;28341;52.064;4.920;2023-07-09T03:50:55;19.13;;;15.15;;
42702;SDS011;28341;52.064;4.920;2023-07-09T03:53:00;16.20;;;13.70;;
42702;SDS011;28341;52.064;4.920;2023-07-09T03:55:04;19.10;;;14.15;;
42702;SDS011;28341;52.064;4.920;2023-07-09T03:57:09;15.70;;;13.57;;
42702;SDS011;28341;52.064;4.920;2023-07-09T03:59:13;16.75;;;14.07;;
42702;SDS011;28341;52.064;4.920;2023-07-09T04:01:17;18.60;;;13.80;;
42702;SDS011;28341;52.064;4.920;2023-07-09T04:03:23;15.70;;;13.52;;
42702;SDS011;28341;52.064;4.920;2023-07-09T04:05:27;17.95;;;14.30;;
42702;SDS011;28341;52.064;4.920;2023-07-09T04:07:34;17.35;;;13.90;;
42702;SDS011;28341;52.064;4.920;2023-07-09T04:09:35;18.02;;;14.05;;
42702;SDS011;28341;52.064;4.920;2023-07-09T04:11:39;16.67;;;13.75;;
42702;SDS011;28341;52.064;4.920;2023-07-09T04:13:43;17.40;;;14.00;;
42702;SDS011;28341;52.064;4.920;2023-07-09T04:15:48;17.23;;;13.25;;
42702;SDS011;28341;52.064;4.920;2023-07-09T04:17:52;15.82;;;12.85;;
42702;SDS011;28341;52.064;4.920;2023-07-09T04:19:56;15.80;;;13.45;;
42702;SDS011;28341;52.064;4.920;2023-07-09T04:22:00;20.20;;;12.80;;
42702;SDS011;28341;52.064;4.920;2023-07-09T04:24:07;20.40;;;13.85;;
42702;SDS011;28341;52.064;4.920;2023-07-09T04:26:11;16.83;;;13.15;;
42702;SDS011;28341;52.064;4.920;2023-07-09T04:28:17;17.35;;;13.13;;
42702;SDS011;28341;52.064;4.920;2023-07-09T04:30:21;25.58;;;15.13;;
42702;SDS011;28341;52.064;4.920;2023-07-09T04:32:25;21.70;;;16.33;;
42702;SDS011;28341;52.064;4.920;2023-07-09T04:34:29;19.75;;;15.63;;
42702;SDS011;28341;52.064;4.920;2023-07-09T04:36:33;18.92;;;14.95;;
42702;SDS011;28341;52.064;4.920;2023-07-09T04:38:37;19.85;;;14.02;;
42702;SDS011;28341;52.064;4.920;2023-07-09T04:40:44;23.83;;;15.20;;
42702;SDS011;28341;52.064;4.920;2023-07-09T04:42:49;19.77;;;13.88;;
42702;SDS011;28341;52.064;4.920;2023-07-09T04:44:53;15.48;;;12.40;;
42702;SDS011;28341;52.064;4.920;2023-07-09T04:46:55;17.33;;;11.95;;
42702;SDS011;28341;52.064;4.920;2023-07-09T04:48:59;17.33;;;13.50;;
42702;SDS011;28341;52.064;4.920;2023-07-09T04:51:03;18.30;;;15.02;;
42702;SDS011;28341;52.064;4.920;2023-07-09T04:53:07;17.45;;;13.68;;
42702;SDS011;28341;52.064;4.920;2023-07-09T04:55:11;19.33;;;15.10;;
42702;SDS011;28341;52.064;4.920;2023-07-09T04:57:21;18.90;;;14.38;;
42702;SDS011;28341;52.064;4.920;2023-07-09T04:59:26;15.10;;;12.48;;
42702;SDS011;28341;52.064;4.920;2023-07-09T05:01:30;15.25;;;12.32;;
42702;SDS011;28341;52.064;4.920;2023-07-09T05:03:34;15.27;;;12.82;;
42702;SDS011;28341;52.064;4.920;2023-07-09T05:05:41;15.20;;;12.13;;
42702;SDS011;28341;52.064;4.920;2023-07-09T05:07:46;14.43;;;12.15;;
42702;SDS011;28341;52.064;4.920;2023-07-09T05:09:50;16.75;;;12.68;;
42702;SDS011;28341;52.064;4.920;2023-07-09T05:11:55;16.08;;;12.90;;
42702;SDS011;28341;52.064;4.920;2023-07-09T05:14:01;14.18;;;12.43;;
42702;SDS011;28341;52.064;4.920;2023-07-09T05:16:06;13.00;;;11.65;;
42702;SDS011;28341;52.064;4.920;2023-07-09T05:18:07;16.35;;;12.43;;
42702;SDS011;28341;52.064;4.920;2023-07-09T05:20:11;15.68;;;12.27;;
42702;SDS011;28341;52.064;4.920;2023-07-09T05:22:16;15.55;;;11.63;;
42702;SDS011;28341;52.064;4.920;2023-07-09T05:24:20;16.88;;;11.73;;
42702;SDS011;28341;52.064;4.920;2023-07-09T05:26:24;16.77;;;13.15;;
42702;SDS011;28341;52.064;4.920;2023-07-09T05:28:29;15.80;;;12.55;;
42702;SDS011;28341;52.064;4.920;2023-07-09T05:30:36;17.50;;;11.88;;
42702;SDS011;28341;52.064;4.920;2023-07-09T05:32:40;17.00;;;13.07;;
42702;SDS011;28341;52.064;4.920;2023-07-09T05:34:44;17.35;;;13.32;;
42702;SDS011;28341;52.064;4.920;2023-07-09T05:36:48;19.90;;;14.90;;
42702;SDS011;28341;52.064;4.920;2023-07-09T05:38:52;16.90;;;13.02;;
42702;SDS011;28341;52.064;4.920;2023-07-09T05:41:00;18.00;;;12.80;;
42702;SDS011;28341;52.064;4.920;2023-07-09T05:43:06;16.30;;;13.23;;
42702;SDS011;28341;52.064;4.920;2023-07-09T05:45:10;18.40;;;13.77;;
42702;SDS011;28341;52.064;4.920;2023-07-09T05:47:17;17.40;;;13.43;;
42702;SDS011;28341;52.064;4.920;2023-07-09T05:49:21;15.82;;;13.15;;
42702;SDS011;28341;52.064;4.920;2023-07-09T05:51:25;20.35;;;13.85;;
42702;SDS011;28341;52.064;4.920;2023-07-09T05:53:29;18.75;;;14.43;;
42702;SDS011;28341;52.064;4.920;2023-07-09T05:55:32;22.15;;;16.92;;
42702;SDS011;28341;52.064;4.920;2023-07-09T05:57:36;20.50;;;15.75;;
42702;SDS011;28341;52.064;4.920;2023-07-09T05:59:41;18.13;;;14.85;;
42702;SDS011;28341;52.064;4.920;2023-07-09T06:01:45;20.17;;;14.77;;
42702;SDS011;28341;52.064;4.920;2023-07-09T06:03:51;18.05;;;14.75;;
42702;SDS011;28341;52.064;4.920;2023-07-09T06:05:56;17.60;;;15.05;;
42702;SDS011;28341;52.064;4.920;2023-07-09T06:08:01;20.27;;;15.15;;
42702;SDS011;28341;52.064;4.920;2023-07-09T06:10:07;20.13;;;15.38;;
42702;SDS011;28341;52.064;4.920;2023-07-09T06:12:12;17.75;;;14.43;;
42702;SDS011;28341;52.064;4.920;2023-07-09T06:14:19;18.52;;;14.73;;
42702;SDS011;28341;52.064;4.920;2023-07-09T06:16:24;17.33;;;13.90;;
42702;SDS011;28341;52.064;4.920;2023-07-09T06:18:28;17.00;;;14.20;;
42702;SDS011;28341;52.064;4.920;2023-07-09T06:20:33;20.17;;;15.85;;
42702;SDS011;28341;52.064;4.920;2023-07-09T06:22:37;17.30;;;14.88;;
42702;SDS011;28341;52.064;4.920;2023-07-09T06:24:41;17.92;;;14.43;;
42702;SDS011;28341;52.064;4.920;2023-07-09T06:26:45;16.88;;;14.27;;
42702;SDS011;28341;52.064;4.920;2023-07-09T06:28:49;20.42;;;16.25;;
42702;SDS011;28341;52.064;4.920;2023-07-09T06:30:53;21.08;;;15.88;;
42702;SDS011;28341;52.064;4.920;2023-07-09T06:32:57;20.75;;;17.17;;
42702;SDS011;28341;52.064;4.920;2023-07-09T06:35:01;22.38;;;16.38;;
42702;SDS011;28341;52.064;4.920;2023-07-09T06:37:09;18.63;;;16.45;;
42702;SDS011;28341;52.064;4.920;2023-07-09T06:39:13;19.25;;;15.98;;
42702;SDS011;28341;52.064;4.920;2023-07-09T06:41:19;16.85;;;13.75;;
42702;SDS011;28341;52.064;4.920;2023-07-09T06:43:24;19.98;;;16.67;;
42702;SDS011;28341;52.064;4.920;2023-07-09T06:45:28;21.05;;;16.17;;
42702;SDS011;28341;52.064;4.920;2023-07-09T06:47:32;16.23;;;13.77;;
42702;SDS011;28341;52.064;4.920;2023-07-09T06:49:36;17.23;;;14.80;;
42702;SDS011;28341;52.064;4.920;2023-07-09T06:51:40;16.92;;;14.75;;
42702;SDS011;28341;52.064;4.920;2023-07-09T06:53:47;20.20;;;16.33;;
42702;SDS011;28341;52.064;4.920;2023-07-09T06:55:55;23.13;;;17.48;;
42702;SDS011;28341;52.064;4.920;2023-07-09T06:58:00;21.95;;;16.33;;
42702;SDS011;28341;52.064;4.920;2023-07-09T07:00:04;21.00;;;17.40;;
42702;SDS011;28341;52.064;4.920;2023-07-09T07:02:10;21.48;;;15.75;;
42702;SDS011;28341;52.064;4.920;2023-07-09T07:04:14;18.65;;;14.07;;
42702;SDS011;28341;52.064;4.920;2023-07-09T07:06:18;18.67;;;14.25;;
42702;SDS011;28341;52.064;4.920;2023-07-09T07:08:23;20.85;;;15.40;;
42702;SDS011;28341;52.064;4.920;2023-07-09T07:10:31;17.13;;;14.40;;
42702;SDS011;28341;52.064;4.920;2023-07-09T07:12:41;21.83;;;13.13;;
42702;SDS011;28341;52.064;4.920;2023-07-09T07:14:46;16.67;;;12.68;;
42702;SDS011;28341;52.064;4.920;2023-07-09T07:16:50;20.58;;;14.57;;
42702;SDS011;28341;52.064;4.920;2023-07-09T07:18:54;18.15;;;12.50;;
42702;SDS011;28341;52.064;4.920;2023-07-09T07:20:58;16.45;;;11.45;;
42702;SDS011;28341;52.064;4.920;2023-07-09T07:23:03;16.50;;;12.52;;
42702;SDS011;28341;52.064;4.920;2023-07-09T07:25:07;16.85;;;13.52;;
42702;SDS011;28341;52.064;4.920;2023-07-09T07:27:15;19.75;;;14.73;;
42702;SDS011;28341;52.064;4.920;2023-07-09T07:29:19;20.73;;;14.95;;
42702;SDS011;28341;52.064;4.920;2023-07-09T07:31:23;20.67;;;16.30;;
42702;SDS011;28341;52.064;4.920;2023-07-09T07:33:27;21.60;;;17.27;;
42702;SDS011;28341;52.064;4.920;2023-07-09T07:35:31;26.50;;;20.38;;
42702;SDS011;28341;52.064;4.920;2023-07-09T07:37:36;27.65;;;22.20;;
42702;SDS011;28341;52.064;4.920;2023-07-09T07:39:40;33.28;;;24.30;;
42702;SDS011;28341;52.064;4.920;2023-07-09T07:41:45;32.30;;;24.23;;
42702;SDS011;28341;52.064;4.920;2023-07-09T07:43:53;34.50;;;25.05;;
42702;SDS011;28341;52.064;4.920;2023-07-09T07:45:57;25.65;;;21.60;;
42702;SDS011;28341;52.064;4.920;2023-07-09T07:48:01;27.48;;;21.45;;
42702;SDS011;28341;52.064;4.920;2023-07-09T07:50:06;26.02;;;20.27;;
42702;SDS011;28341;52.064;4.920;2023-07-09T07:52:11;22.20;;;17.88;;
42702;SDS011;28341;52.064;4.920;2023-07-09T07:54:15;22.33;;;17.38;;
42702;SDS011;28341;52.064;4.920;2023-07-09T07:56:19;26.63;;;18.17;;
42702;SDS011;28341;52.064;4.920;2023-07-09T07:58:23;24.52;;;18.52;;
42702;SDS011;28341;52.064;4.920;2023-07-09T08:00:30;24.70;;;17.27;;
42702;SDS011;28341;52.064;4.920;2023-07-09T08:02:35;24.23;;;19.05;;
42702;SDS011;28341;52.064;4.920;2023-07-09T08:04:39;23.55;;;18.48;;
42702;SDS011;28341;52.064;4.920;2023-07-09T08:06:43;21.50;;;18.55;;
42702;SDS011;28341;52.064;4.920;2023-07-09T08:08:47;23.58;;;17.88;;
42702;SDS011;28341;52.064;4.920;2023-07-09T08:10:51;24.20;;;19.17;;
42702;SDS011;28341;52.064;4.920;2023-07-09T08:13:04;24.35;;;19.95;;
42702;SDS011;28341;52.064;4.920;2023-07-09T08:15:09;24.63;;;20.73;;
42702;SDS011;28341;52.064;4.920;2023-07-09T08:17:16;29.55;;;22.58;;
42702;SDS011;28341;52.064;4.920;2023-07-09T08:19:20;30.42;;;23.00;;
42702;SDS011;28341;52.064;4.920;2023-07-09T08:21:22;30.50;;;21.37;;
42702;SDS011;28341;52.064;4.920;2023-07-09T08:23:26;26.33;;;20.45;;
42702;SDS011;28341;52.064;4.920;2023-07-09T08:25:30;24.77;;;18.55;;
42702;SDS011;28341;52.064;4.920;2023-07-09T08:27:34;20.10;;;16.45;;
42702;SDS011;28341;52.064;4.920;2023-07-09T08:29:38;22.38;;;15.85;;
42702;SDS011;28341;52.064;4.920;2023-07-09T08:31:42;21.70;;;16.00;;
42702;SDS011;28341;52.064;4.920;2023-07-09T08:33:49;19.90;;;17.20;;
42702;SDS011;28341;52.064;4.920;2023-07-09T08:35:53;23.73;;;17.58;;
42702;SDS011;28341;52.064;4.920;2023-07-09T08:37:58;23.55;;;17.85;;
42702;SDS011;28341;52.064;4.920;2023-07-09T08:40:03;28.90;;;18.95;;
42702;SDS011;28341;52.064;4.920;2023-07-09T08:42:11;27.25;;;19.30;;
42702;SDS011;28341;52.064;4.920;2023-07-09T08:44:24;25.33;;;18.98;;
42702;SDS011;28341;52.064;4.920;2023-07-09T08:47:02;23.00;;;18.23;;
42702;SDS011;28341;52.064;4.920;2023-07-09T08:49:14;21.67;;;17.05;;
42702;SDS011;28341;52.064;4.920;2023-07-09T08:51:25;21.38;;;16.08;;
42702;SDS011;28341;52.064;4.920;2023-07-09T08:53:33;22.25;;;16.92;;
42702;SDS011;28341;52.064;4.920;2023-07-09T08:55:42;27.33;;;18.48;;
42702;SDS011;28341;52.064;4.920;2023-07-09T08:57:47;26.50;;;20.02;;
42702;SDS011;28341;52.064;4.920;2023-07-09T08:59:54;22.83;;;18.38;;
42702;SDS011;28341;52.064;4.920;2023-07-09T09:02:09;24.17;;;20.02;;
42702;SDS011;28341;52.064;4.920;2023-07-09T09:04:24;21.38;;;16.90;;
42702;SDS011;28341;52.064;4.920;2023-07-09T09:06:31;27.85;;;20.92;;
42702;SDS011;28341;52.064;4.920;2023-07-09T09:08:37;30.58;;;21.35;;
42702;SDS011;28341;52.064;4.920;2023-07-09T09:10:46;23.85;;;19.42;;
42702;SDS011;28341;52.064;4.920;2023-07-09T09:12:55;27.13;;;20.38;;
42702;SDS011;28341;52.064;4.920;2023-07-09T09:15:12;22.23;;;19.50;;
42702;SDS011;28341;52.064;4.920;2023-07-09T09:17:20;26.67;;;18.33;;
42702;SDS011;28341;52.064;4.920;2023-07-09T09:19:29;23.40;;;19.27;;
42702;SDS011;28341;52.064;4.920;2023-07-09T09:21:38;18.55;;;16.38;;
42702;SDS011;28341;52.064;4.920;2023-07-09T09:23:43;23.02;;;16.73;;
42702;SDS011;28341;52.064;4.920;2023-07-09T09:25:52;22.02;;;18.00;;
42702;SDS011;28341;52.064;4.920;2023-07-09T09:27:58;26.58;;;18.27;;
42702;SDS011;28341;52.064;4.920;2023-07-09T09:30:03;29.02;;;19.02;;
42702;SDS011;28341;52.064;4.920;2023-07-09T09:32:18;21.48;;;16.77;;
42702;SDS011;28341;52.064;4.920;2023-07-09T09:34:29;23.10;;;17.38;;
42702;SDS011;28341;52.064;4.920;2023-07-09T09:36:36;27.38;;;21.10;;
42702;SDS011;28341;52.064;4.920;2023-07-09T09:38:38;28.38;;;19.25;;
42702;SDS011;28341;52.064;4.920;2023-07-09T09:40:42;25.70;;;18.40;;
42702;SDS011;28341;52.064;4.920;2023-07-09T09:42:46;29.02;;;19.52;;
42702;SDS011;28341;52.064;4.920;2023-07-09T09:44:52;24.58;;;16.95;;
42702;SDS011;28341;52.064;4.920;2023-07-09T09:46:57;22.88;;;14.73;;
42702;SDS011;28341;52.064;4.920;2023-07-09T09:49:02;24.80;;;14.23;;
42702;SDS011;28341;52.064;4.920;2023-07-09T09:51:14;15.85;;;13.35;;
42702;SDS011;28341;52.064;4.920;2023-07-09T09:53:20;17.55;;;13.70;;
42702;SDS011;28341;52.064;4.920;2023-07-09T09:55:27;19.45;;;13.13;;
42702;SDS011;28341;52.064;4.920;2023-07-09T09:57:33;19.08;;;11.75;;
42702;SDS011;28341;52.064;4.920;2023-07-09T09:59:37;16.67;;;11.70;;
42702;SDS011;28341;52.064;4.920;2023-07-09T10:01:41;24.42;;;12.65;;
42702;SDS011;28341;52.064;4.920;2023-07-09T10:03:47;16.70;;;12.20;;
42702;SDS011;28341;52.064;4.920;2023-07-09T10:05:55;14.18;;;11.50;;
42702;SDS011;28341;52.064;4.920;2023-07-09T10:08:06;17.17;;;13.52;;
42702;SDS011;28341;52.064;4.920;2023-07-09T10:10:13;17.00;;;12.68;;
42702;SDS011;28341;52.064;4.920;2023-07-09T10:12:29;15.00;;;12.52;;
42702;SDS011;28341;52.064;4.920;2023-07-09T10:14:42;18.02;;;12.90;;
42702;SDS011;28341;52.064;4.920;2023-07-09T10:16:55;14.82;;;12.38;;
42702;SDS011;28341;52.064;4.920;2023-07-09T10:19:02;15.60;;;11.32;;
42702;SDS011;28341;52.064;4.920;2023-07-09T10:21:22;14.27;;;10.63;;
42702;SDS011;28341;52.064;4.920;2023-07-09T10:23:38;14.38;;;10.35;;
42702;SDS011;28341;52.064;4.920;2023-07-09T10:25:50;19.90;;;11.40;;
42702;SDS011;28341;52.064;4.920;2023-07-09T10:28:01;17.42;;;10.52;;
42702;SDS011;28341;52.064;4.920;2023-07-09T10:30:37;14.40;;;11.25;;
42702;SDS011;28341;52.064;4.920;2023-07-09T10:32:52;17.08;;;11.43;;
42702;SDS011;28341;52.064;4.920;2023-07-09T10:35:05;20.70;;;10.25;;
42702;SDS011;28341;52.064;4.920;2023-07-09T10:37:19;14.98;;;9.30;;
42702;SDS011;28341;52.064;4.920;2023-07-09T10:39:44;16.48;;;9.02;;
42702;SDS011;28341;52.064;4.920;2023-07-09T10:41:50;13.40;;;9.27;;
42702;SDS011;28341;52.064;4.920;2023-07-09T10:44:02;14.32;;;9.27;;
42702;SDS011;28341;52.064;4.920;2023-07-09T10:46:13;15.30;;;8.90;;
42702;SDS011;28341;52.064;4.920;2023-07-09T10:48:25;11.52;;;8.60;;
42702;SDS011;28341;52.064;4.920;2023-07-09T10:50:38;11.60;;;7.63;;
42702;SDS011;28341;52.064;4.920;2023-07-09T10:52:46;11.50;;;7.88;;
42702;SDS011;28341;52.064;4.920;2023-07-09T10:54:54;13.35;;;8.57;;
42702;SDS011;28341;52.064;4.920;2023-07-09T10:57:02;14.18;;;7.72;;
42702;SDS011;28341;52.064;4.920;2023-07-09T10:59:16;11.77;;;7.82;;
42702;SDS011;28341;52.064;4.920;2023-07-09T11:01:27;14.02;;;7.88;;
42702;SDS011;28341;52.064;4.920;2023-07-09T11:03:38;14.75;;;7.90;;
42702;SDS011;28341;52.064;4.920;2023-07-09T11:05:43;13.45;;;8.13;;
42702;SDS011;28341;52.064;4.920;2023-07-09T11:07:48;13.45;;;8.32;;
42702;SDS011;28341;52.064;4.920;2023-07-09T11:10:02;12.32;;;8.38;;
42702;SDS011;28341;52.064;4.920;2023-07-09T11:12:13;13.25;;;8.27;;
42702;SDS011;28341;52.064;4.920;2023-07-09T11:14:23;18.77;;;8.85;;
42702;SDS011;28341;52.064;4.920;2023-07-09T11:16:36;12.93;;;8.40;;
42702;SDS011;28341;52.064;4.920;2023-07-09T11:18:51;10.70;;;8.00;;
42702;SDS011;28341;52.064;4.920;2023-07-09T11:20:58;12.07;;;8.27;;
42702;SDS011;28341;52.064;4.920;2023-07-09T11:23:05;17.25;;;9.82;;
42702;SDS011;28341;52.064;4.920;2023-07-09T11:25:30;15.48;;;9.75;;
42702;SDS011;28341;52.064;4.920;2023-07-09T11:27:45;13.52;;;8.90;;
42702;SDS011;28341;52.064;4.920;2023-07-09T11:29:56;12.48;;;9.60;;
42702;SDS011;28341;52.064;4.920;2023-07-09T11:32:07;14.82;;;9.63;;
42702;SDS011;28341;52.064;4.920;2023-07-09T11:34:15;15.27;;;10.50;;
42702;SDS011;28341;52.064;4.920;2023-07-09T11:36:25;14.73;;;9.85;;
42702;SDS011;28341;52.064;4.920;2023-07-09T11:38:36;15.25;;;10.80;;
42702;SDS011;28341;52.064;4.920;2023-07-09T11:40:48;15.32;;;11.32;;
42702;SDS011;28341;52.064;4.920;2023-07-09T11:42:54;15.45;;;12.75;;
42702;SDS011;28341;52.064;4.920;2023-07-09T11:45:05;14.95;;;10.57;;
42702;SDS011;28341;52.064;4.920;2023-07-09T11:47:14;14.00;;;10.55;;
42702;SDS011;28341;52.064;4.920;2023-07-09T11:49:23;16.58;;;9.80;;
42702;SDS011;28341;52.064;4.920;2023-07-09T11:51:33;13.50;;;8.27;;
42702;SDS011;28341;52.064;4.920;2023-07-09T11:53:44;18.40;;;10.50;;
42702;SDS011;28341;52.064;4.920;2023-07-09T11:55:53;12.65;;;8.57;;
42702;SDS011;28341;52.064;4.920;2023-07-09T11:57:59;12.10;;;9.07;;
42702;SDS011;28341;52.064;4.920;2023-07-09T12:00:07;11.43;;;8.70;;
42702;SDS011;28341;52.064;4.920;2023-07-09T12:02:15;11.57;;;8.65;;
42702;SDS011;28341;52.064;4.920;2023-07-09T12:04:21;12.88;;;8.38;;
42702;SDS011;28341;52.064;4.920;2023-07-09T12:06:29;11.63;;;8.05;;
42702;SDS011;28341;52.064;4.920;2023-07-09T12:08:36;13.75;;;9.15;;
42702;SDS011;28341;52.064;4.920;2023-07-09T12:10:41;12.20;;;8.98;;
42702;SDS011;28341;52.064;4.920;2023-07-09T12:12:48;15.40;;;9.30;;
42702;SDS011;28341;52.064;4.920;2023-07-09T12:14:57;13.63;;;8.45;;
42702;SDS011;28341;52.064;4.920;2023-07-09T12:17:01;10.85;;;8.07;;
42702;SDS011;28341;52.064;4.920;2023-07-09T12:19:05;11.52;;;8.00;;
42702;SDS011;28341;52.064;4.920;2023-07-09T12:21:09;13.90;;;8.70;;
42702;SDS011;28341;52.064;4.920;2023-07-09T12:23:16;12.13;;;8.20;;